KSKA/SKA METAR and TAF weather

Enter ICAO airport designator
Station Type Date Time Source
KSKA METAR 2022/05/26 03:58 UTC NOAA

KSKA 260358Z AUTO 11004KT 10SM CLR 13/09 A2993 RMK AO2 SLP136 T01340087 PWINO $


Station Type Date Time Source
KSKA Decoded METAR 2022/05/26 03:58 UTC NOAA

Fairchild Air Force Base, WA, United States (KSKA) 47-37N 117-39W
May 25, 2022 - 11:58 PM EDT / 2022.05.26 0358 UTC
Wind: from the ESE (110 degrees) at 5 MPH (4 KT):0
Visibility: 10 mile(s):0
Sky conditions: clear
Temperature: 56.1 F (13.4 C)
Dew Point: 47.7 F (8.7 C)
Relative Humidity: 73%
Pressure (altimeter): 29.93 in. Hg (1013 hPa)
ob: KSKA 260358Z AUTO 11004KT 10SM CLR 13/09 A2993 RMK AO2 SLP136 T01340087 PWINO
cycle: 4

Station Type Date Time Source
KSKA TAF 2022/05/26 03:59 UTC NOAA

TAF KSKA 260300Z 2603/2709 VRB06KT 9999 SCT040 SCT180 620705 QNH2991INS
BECMG 2612/2613 18007KT 9999 BKN110 QNH2992INS
BECMG 2619/2620 VRB06KT 9999 BKN030 BKN100 QNH2981INS TX24/2623Z TN11/2612Z

Example: see airport list